Scott R. Wilson — WDA5062 — position and weather

sailwx.info

Track history (hours):
 
Tides and Currents Weather Stations Pressure Air Temp Water Temp Dewpoint Dewpoint Depression Visibility Wind Speed Wind Dir Waves Ship Positions

Scott R. Wilson

Owner: BLESSY ENTERPRISES INC, HARAHAN, LA. More information available from US FCC via Universal Licensing System.

Last reported at 2017-Oct-12 09:16 UTC. Time now 2017-Oct-17 22:34 UTC.
Position N 29°44' W 095°08'.

Length 23 m; draft 2.6 m.

Type: Tow > 200 m length. MMSI: 366816020.

Date/timePositionNaut miles runAvg speedWind from/ knotsBaromVisibWave heightAir tempDewpointWater temp
2017-Oct-12 09:16N 29°44' W 095°08'4 7.8
2017-Oct-12 08:48N 29°44' W 095°12'1 5.0
2017-Oct-12 08:30N 29°44' W 095°14'0 0.0
2017-Oct-12 07:50N 29°44' W 095°14'0 0.0
2017-Oct-12 07:24N 29°44' W 095°14'0 0.0
2017-Oct-12 07:00N 29°44' W 095°14'0 0.0
2017-Oct-12 06:29N 29°44' W 095°14'0 0.0
2017-Oct-12 05:59N 29°44' W 095°14'0 0.0
2017-Oct-12 05:30N 29°44' W 095°14'0 0.0
2017-Oct-12 05:00N 29°44' W 095°14'0 0.0
2017-Oct-12 04:30N 29°44' W 095°14'0 0.0
2017-Oct-12 03:59N 29°44' W 095°14'0 0.0
2017-Oct-12 03:27N 29°44' W 095°14'0 0.0
2017-Oct-12 03:00N 29°44' W 095°14'0 0.0
2017-Oct-12 02:26N 29°44' W 095°14'0 0.0
2017-Oct-12 01:44N 29°44' W 095°14'0 0.0
2017-Oct-12 00:01N 29°44' W 095°14'0 0.0
2017-Oct-12 00:00N 29°44' W 095°14'0 0.0
2017-Oct-10 04:53N 29°44' W 095°13'0 0.1
2017-Oct-10 04:26N 29°44' W 095°13'  
2017-Oct-07 21:57N 29°44' W 095°08'2 3.3
2017-Oct-07 21:30N 29°44' W 095°10'0 0.1
2017-Oct-07 20:58N 29°44' W 095°10'0 0.0
2017-Oct-07 20:29N 29°44' W 095°10'0 0.0
2017-Oct-07 19:31N 29°44' W 095°10'0 0.0
2017-Oct-07 19:24N 29°44' W 095°10'0 0.0
2017-Oct-07 18:59N 29°44' W 095°10'0 0.0
2017-Oct-07 18:28N 29°44' W 095°10'0 0.0
2017-Oct-07 17:59N 29°44' W 095°10'0 0.0
2017-Oct-07 17:30N 29°44' W 095°10'0 0.0
2017-Oct-07 16:57N 29°44' W 095°10'0 0.0
2017-Oct-07 16:29N 29°44' W 095°10'0 0.0
2017-Oct-07 15:54N 29°44' W 095°10'0 0.0
2017-Oct-07 15:27N 29°44' W 095°10'0 0.0
2017-Oct-07 15:00N 29°44' W 095°10'0 0.0
2017-Oct-07 14:30N 29°44' W 095°10'0 0.0
2017-Oct-07 14:01N 29°44' W 095°10'0 0.0
2017-Oct-07 13:30N 29°44' W 095°10'0 0.0
2017-Oct-07 12:58N 29°44' W 095°10'0 0.0
2017-Oct-07 12:31N 29°44' W 095°10'0 0.0
2017-Oct-07 12:00N 29°44' W 095°10'0 0.0
2017-Oct-07 11:30N 29°44' W 095°10'0 0.0
2017-Oct-07 11:00N 29°44' W 095°10'0 0.0
2017-Oct-07 10:30N 29°44' W 095°10'0 0.0
2017-Oct-07 10:00N 29°44' W 095°10'0 0.0
2017-Oct-07 09:31N 29°44' W 095°10'0 0.0
2017-Oct-07 09:00N 29°44' W 095°10'0 0.0
2017-Oct-07 08:30N 29°44' W 095°10'0 0.0
2017-Oct-07 07:59N 29°44' W 095°10'0 0.0
2017-Oct-07 07:30N 29°44' W 095°10'0 0.0
2017-Oct-07 07:00N 29°44' W 095°10'0 0.0
2017-Oct-07 06:30N 29°44' W 095°10'0 0.0
2017-Oct-07 05:59N 29°44' W 095°10'0 0.0
2017-Oct-07 05:28N 29°44' W 095°10'0 0.1
2017-Oct-07 04:30N 29°44' W 095°10'0 0.0
2017-Oct-07 04:00N 29°44' W 095°10'0 0.0
2017-Oct-07 03:18N 29°44' W 095°10'0 0.0
2017-Oct-07 03:00N 29°44' W 095°10'0 0.0
2017-Oct-07 02:30N 29°44' W 095°10'2 0.0
2017-Oct-05 12:47N 29°44' W 095°08'4 4.9
2017-Oct-05 12:01N 29°44' W 095°12'0 5.3
2017-Oct-05 11:59N 29°44' W 095°12'2 3.8
2017-Oct-05 11:28N 29°43' W 095°14'0 0.5
2017-Oct-05 10:59N 29°43' W 095°14'  
Track history (hours):
 
Tides and Currents Weather Stations Pressure Air Temp Water Temp Dewpoint Dewpoint Depression Visibility Wind Speed Wind Dir Waves Ship Positions

Scott R. Wilson

Owner: BLESSY ENTERPRISES INC, HARAHAN, LA. More information available from US FCC via Universal Licensing System.

Last reported at 2017-Oct-12 09:16 UTC. Time now 2017-Oct-17 22:34 UTC.
Position N 29°44' W 095°08'.

Length 23 m; draft 2.6 m.

Type: Tow > 200 m length. MMSI: 366816020.

Date/timePositionNaut miles runAvg speedWind from/ knotsBaromVisibWave heightAir tempDewpointWater temp
2017-Oct-12 09:16N 29°44' W 095°08'4 7.8
2017-Oct-12 08:48N 29°44' W 095°12'1 5.0
2017-Oct-12 08:30N 29°44' W 095°14'0 0.0
2017-Oct-12 07:50N 29°44' W 095°14'0 0.0
2017-Oct-12 07:24N 29°44' W 095°14'0 0.0
2017-Oct-12 07:00N 29°44' W 095°14'0 0.0
2017-Oct-12 06:29N 29°44' W 095°14'0 0.0
2017-Oct-12 05:59N 29°44' W 095°14'0 0.0
2017-Oct-12 05:30N 29°44' W 095°14'0 0.0
2017-Oct-12 05:00N 29°44' W 095°14'0 0.0
2017-Oct-12 04:30N 29°44' W 095°14'0 0.0
2017-Oct-12 03:59N 29°44' W 095°14'0 0.0
2017-Oct-12 03:27N 29°44' W 095°14'0 0.0
2017-Oct-12 03:00N 29°44' W 095°14'0 0.0
2017-Oct-12 02:26N 29°44' W 095°14'0 0.0
2017-Oct-12 01:44N 29°44' W 095°14'0 0.0
2017-Oct-12 00:01N 29°44' W 095°14'0 0.0
2017-Oct-12 00:00N 29°44' W 095°14'0 0.0
2017-Oct-10 04:53N 29°44' W 095°13'0 0.1
2017-Oct-10 04:26N 29°44' W 095°13'  
2017-Oct-07 21:57N 29°44' W 095°08'2 3.3
2017-Oct-07 21:30N 29°44' W 095°10'0 0.1
2017-Oct-07 20:58N 29°44' W 095°10'0 0.0
2017-Oct-07 20:29N 29°44' W 095°10'0 0.0
2017-Oct-07 19:31N 29°44' W 095°10'0 0.0
2017-Oct-07 19:24N 29°44' W 095°10'0 0.0
2017-Oct-07 18:59N 29°44' W 095°10'0 0.0
2017-Oct-07 18:28N 29°44' W 095°10'0 0.0
2017-Oct-07 17:59N 29°44' W 095°10'0 0.0
2017-Oct-07 17:30N 29°44' W 095°10'0 0.0
2017-Oct-07 16:57N 29°44' W 095°10'0 0.0
2017-Oct-07 16:29N 29°44' W 095°10'0 0.0
2017-Oct-07 15:54N 29°44' W 095°10'0 0.0
2017-Oct-07 15:27N 29°44' W 095°10'0 0.0
2017-Oct-07 15:00N 29°44' W 095°10'0 0.0
2017-Oct-07 14:30N 29°44' W 095°10'0 0.0
2017-Oct-07 14:01N 29°44' W 095°10'0 0.0
2017-Oct-07 13:30N 29°44' W 095°10'0 0.0
2017-Oct-07 12:58N 29°44' W 095°10'0 0.0
2017-Oct-07 12:31N 29°44' W 095°10'0 0.0
2017-Oct-07 12:00N 29°44' W 095°10'0 0.0
2017-Oct-07 11:30N 29°44' W 095°10'0 0.0
2017-Oct-07 11:00N 29°44' W 095°10'0 0.0
2017-Oct-07 10:30N 29°44' W 095°10'0 0.0
2017-Oct-07 10:00N 29°44' W 095°10'0 0.0
2017-Oct-07 09:31N 29°44' W 095°10'0 0.0
2017-Oct-07 09:00N 29°44' W 095°10'0 0.0
2017-Oct-07 08:30N 29°44' W 095°10'0 0.0
2017-Oct-07 07:59N 29°44' W 095°10'0 0.0
2017-Oct-07 07:30N 29°44' W 095°10'0 0.0
2017-Oct-07 07:00N 29°44' W 095°10'0 0.0
2017-Oct-07 06:30N 29°44' W 095°10'0 0.0
2017-Oct-07 05:59N 29°44' W 095°10'0 0.0
2017-Oct-07 05:28N 29°44' W 095°10'0 0.1
2017-Oct-07 04:30N 29°44' W 095°10'0 0.0
2017-Oct-07 04:00N 29°44' W 095°10'0 0.0
2017-Oct-07 03:18N 29°44' W 095°10'0 0.0
2017-Oct-07 03:00N 29°44' W 095°10'0 0.0
2017-Oct-07 02:30N 29°44' W 095°10'2 0.0
2017-Oct-05 12:47N 29°44' W 095°08'4 4.9
2017-Oct-05 12:01N 29°44' W 095°12'0 5.3
2017-Oct-05 11:59N 29°44' W 095°12'2 3.8
2017-Oct-05 11:28N 29°43' W 095°14'0 0.5
2017-Oct-05 10:59N 29°43' W 095°14'  

Dump ship's entire track history